Historique des mesures à Cassis (13260), France
Quotidien Résumé Fevrier 9, 2017 Unités:  Métrique    US   Métrique/US
« Précédent (Jour)
Suivant (Jour) »
Quotidien Hebdomadaire Mensuel Annuel Période au choix
  Maximum: Minimum: Moyenne:
Température: TemperatureC °C 7.7 °C 9 °C
Point de rosée: DewpointC °C 3.4 °C 4.5 °C
Humidité: Humidity % 65 % 70 %
Vitesse du vent: 0 km/h 0 km/h 1.3 km/h
Rafales: 0 km/h - -
Vent:- - SE
Pression: PressurehPa hPa 1012.1 hPa -
Précipitations: 0.5 mm    
Historical Graphs
 
 
Mesures pour : Fevrier 9, 2017
Heure Temperature Point de rosée Pression Vent Vitesse du vent Rafales Humidité Pluie (par heure) Conditions
TemperatureC °C DewpointC °C PressurehPa hPa Calm     Humidity % HourlyPrecipMM mm SoftwareType W/m2
00:11 9.1 °C 4.1 °C 1012.1 hPa Calm     71 % 0.0 mm open2300-1.11 W/m2
01:10 9.3 °C 3.7 °C 1012.4 hPa ENE 2.3 km/h 2.3 km/h 68 % 0.0 mm open2300-1.11 W/m2
02:11 8.8 °C 3.6 °C 1012.8 hPa NW 5.6 km/h 5.6 km/h 70 % 0.0 mm open2300-1.11 W/m2
03:10 8.6 °C 3.4 °C 1012.4 hPa Calm     70 % 0.0 mm open2300-1.11 W/m2
04:11 8.3 °C 3.6 °C 1012.8 hPa North 4.2 km/h 5.1 km/h 72 % 0.0 mm open2300-1.11 W/m2
05:10 8.3 °C 3.7 °C 1013.1 hPa Calm     73 % 0.0 mm open2300-1.11 W/m2
06:11 8.1 °C 3.4 °C 1013.1 hPa Calm     72 % 0.0 mm open2300-1.11 W/m2
07:10 7.7 °C 3.7 °C 1013.4 hPa NNW 2.3 km/h 2.3 km/h 76 % 0.0 mm open2300-1.11 W/m2
08:11 8.1 °C 4.1 °C 1013.4 hPa Calm     76 % 0.0 mm open2300-1.11 W/m2
09:10 8.8 °C 4.0 °C 1013.4 hPa WNW 9.3 km/h 9.3 km/h 72 % 0.0 mm open2300-1.11 W/m2
10:11 9.5 °C 4.5 °C 1013.4 hPa Calm     71 % 0.0 mm open2300-1.11 W/m2
11:10 9.6 °C 4.6 °C 1013.8 hPa Calm     71 % 0.0 mm open2300-1.11 W/m2
12:11 10.4 °C 5.0 °C 1014.1 hPa Calm   4.2 km/h 69 % 0.0 mm open2300-1.11 W/m2
13:10 11.5 °C 5.6 °C 1013.8 hPa North 4.2 km/h 4.2 km/h 67 % 0.0 mm open2300-1.11 W/m2
14:11 12.1 °C 5.7 °C 1013.4 hPa Calm     65 % 0.0 mm open2300-1.11 W/m2
15:11 11.8 °C 6.1 °C 1013.4 hPa Calm     68 % 0.0 mm open2300-1.11 W/m2
16:11 10.8 °C 6.0 °C 1013.8 hPa North 2.9 km/h 3.4 km/h 72 % 0.0 mm open2300-1.11 W/m2
17:10 9.9 °C 5.4 °C 1013.4 hPa Calm     74 % 0.0 mm open2300-1.11 W/m2
18:11 9.9 °C 5.8 °C 1014.1 hPa Calm     76 % 0.0 mm open2300-1.11 W/m2
19:11 9.4 °C 5.7 °C 1014.4 hPa Calm     78 % 0.5 mm open2300-1.11 W/m2
20:11 9.3 °C 5.6 °C 1014.4 hPa Calm     78 % 0.0 mm open2300-1.11 W/m2
21:10 9.1 °C 5.6 °C 1014.4 hPa Calm     79 % 0.0 mm open2300-1.11 W/m2
22:11 8.9 °C 5.4 °C 1014.4 hPa Calm     79 % 0.0 mm open2300-1.11 W/m2
23:10 8.9 °C 5.2 °C 1014.4 hPa Calm     78 % 0.0 mm open2300-1.11 W/m2
Observations météo à CASSIS
WU-History script by Weather Underground - 1 mb